Aviation Digital Data Service (ADDS)

Output produced by METARs form (1409 UTC 25 July 2016)
found at http://aviationweather.gov/adds/metars/
 
KLCH 251353Z 06005KT 10SM SCT023 28/24 A2998 RMK AO2 LTG DSNT SE AND SW SLP160 T02780244